METAR Formatted Surface Weather Observation
Issued by NWS Raleigh/Durham, NC

Home | Current Version | Previous Version | Text Only | Print | Product List | Glossary On
Versions: 1 2 3 4 5 6 7 8 9 10
000
SAUS42 KRAH 210053
MTRRDU
METAR KRDU 210051Z 00000KT 10SM FEW050 SCT250 24/19 A2999 RMK AO2
SLP151 T02390189 $



USA.gov is the U.S. government's official web portal to all federal, state and local government web resources and services.